• Join FlightAware (Why Join?)
  • Login
  • US Flag 
09:20AM EDT


 

Airport Tracker/Info


-or-


 

Live Flight TrackerFlight Track Log ✈ UAL6044 ✈ 26-May-2013 ✈ KDEN - KOMA

Flight Track Log - Related Links

Times and Time Zones

All times are in EDT time to prevent confusion due to time zone crossing. See the UAL6044 flight status page for this flight to view local times or setup timezone preferences in your user account.

Time Position Orientation Groundspeed Altitude Reporting Facility
EDT Latitude Longitude Course Direction KTS MPH feet Rate Location/Type
10:12AM 39.8833 -104.6000 75° East 195 224 6,400  Level Denver TRACON
10:13AM 39.8875 -104.5386 85° East 212 244 7,900 1,860 Climbing Denver Center
10:14AM 39.9094 -104.4442 73° East 249 287 9,900 1,440 Climbing Denver Center
10:15AM 39.9397 -104.1676 79° East  Level FlightAware Approximate
10:15AM 39.9297 -104.3447 75° East 281 323 10,900  Level Denver Center
10:16AM 39.9584 -104.0414 79° East  Level FlightAware Approximate
10:16AM 39.9469 -104.2353 78° East 304 350 12,000  Level Denver Center
10:17AM 39.9801 -103.9161 75° East  Level FlightAware Approximate
10:17AM 39.9650 -104.1186 79° East 327 376 13,000  Level Denver Center
10:18AM 39.9872 -103.9875 77° East 343 395 14,300 1,260 Climbing Denver Center
10:19AM 40.0058 -103.8642 79° East 347 399 15,600 1,260 Climbing Denver Center
10:20AM 40.0261 -103.7397 78° East 351 404 17,000 1,380 Climbing Denver Center
10:21AM 40.0469 -103.6125 78° East 344 396 18,500 1,200 Climbing Denver Center
10:22AM 40.0639 -103.5081 78° East 362 417 19,500 1,200 Climbing Denver Center
10:23AM 40.0917 -103.3353 78° East 379 436 21,000 1,260 Climbing Denver Center
10:24AM 40.1131 -103.2028 78° East 388 447 22,200 1,080 Climbing Denver Center
10:25AM 40.1350 -103.0678 78° East 396 456 23,300 1,200 Climbing Denver Center
10:26AM 40.1592 -102.9047 79° East 406 467 24,700 1,260 Climbing Denver Center
10:27AM 40.1794 -102.7650 79° East 408 470 26,000 1,440 Climbing Denver Center
10:28AM 40.2056 -102.6039 78° East 408 470 27,700 1,500 Climbing Denver Center
10:29AM 40.2261 -102.4681 79° East 403 464 29,100 1,320 Climbing Denver Center
10:30AM 40.2467 -102.3358 78° East 395 455 30,500 1,440 Climbing Denver Center
10:31AM 40.2692 -102.1825 79° East 389 448 32,100 1,260 Climbing Denver Center
10:32AM 40.2892 -102.0539 78° East 382 440 33,100 780 Climbing Denver Center
10:33AM 40.3147 -101.8972 78° East 390 449 33,800 780 Climbing Denver Center
10:34AM 40.3344 -101.7536 80° East 413 475 34,800 480 Climbing Denver Center
10:35AM 40.3556 -101.6092 79° East 420 483 35,000 60 Climbing Denver Center
10:36AM 40.3828 -101.4156 79° East 424 488 35,000  Level Denver Center
10:37AM 40.4058 -101.2575 79° East 403 464 35,000  Level Denver Center
10:38AM 40.4256 -101.1219 79° East 397 457 35,000  Level Denver Center
10:39AM 40.4439 -100.9864 80° East 396 456 35,000  Level Denver Center
10:40AM 40.4731 -100.8289 76° East 401 461 35,000  Level Denver Center
10:42AM 40.5025 -100.6939 74° East 404 465 35,000  Level Denver Center
10:43AM 40.5358 -100.5367 74° East 404 465 35,000  Level Denver Center
10:44AM 40.5639 -100.4006 75° East 405 466 35,000  Level Denver Center
10:45AM 40.5981 -100.2431 74° East 404 465 35,000  Level Denver Center
10:46AM 40.6261 -100.1086 75° East 401 461 35,000  Level Denver Center
10:47AM 40.6586 -99.9503 75° East 402 463 35,000  Level Denver Center
10:48AM 40.6867 -99.8178 74° East 403 464 35,000  Level Denver Center
10:49AM 40.7150 -99.6756 75° East 402 463 35,000  Level Denver Center
10:50AM 40.7442 -99.5314 75° East 406 467 35,000  Level Denver Center
10:51AM 40.7728 -99.3897 75° East 401 461 35,000  Level Denver Center
10:52AM 40.8017 -99.2464 75° East 405 466 35,000  Level Denver Center
10:53AM 40.8339 -99.0822 75° East 408 470 35,000  Level Denver Center
10:53AM 40.8372 -99.0683 72° East 407 468 35,000  Level Minneapolis Center
10:54AM 40.8714 -98.8925 76° East 411 473 35,000  Level Minneapolis Center
10:55AM 40.8989 -98.7472 76° East 409 471 35,000  Level Minneapolis Center
10:56AM 40.9275 -98.6022 75° East 408 470 35,000  Level Minneapolis Center
10:57AM 40.9550 -98.4578 76° East 406 467 35,000  Level Minneapolis Center
10:58AM 40.9869 -98.2983 75° East 405 466 35,000 -60 Level Minneapolis Center
10:59AM 41.0247 -98.1600 70° East 402 463 34,900 -660 Descending Minneapolis Center
11:00AM 41.0619 -98.0194 71° East 404 465 33,700 -1,380 Descending Minneapolis Center
11:01AM 41.0978 -97.8847 71° East 394 453 32,200 -1,680 Descending Minneapolis Center
11:02AM 41.1278 -97.7533 73° East 379 436 30,400 -1,920 Descending Minneapolis Center
11:03AM 41.1550 -97.6208 75° East 374 430 28,400 -2,220 Descending Minneapolis Center
11:04AM 41.1900 -97.4689 73° East 361 415 25,900 -2,160 Descending Minneapolis Center
11:05AM 41.2214 -97.3622 69° East 349 402 24,000 -1,680 Descending Minneapolis Center
11:06AM 41.2553 -97.2472 69° East 338 389 22,500 -1,800 Descending Minneapolis Center
11:07AM 41.2864 -97.1361 70° East 326 375 20,400 -2,220 Descending Minneapolis Center
11:08AM 41.2844 -97.0933 93° East 322 371 19,700 -1,680 Descending Minneapolis Center
11:08AM 41.3178 -97.0264 56° Northeast 319 367 18,700 -1,740 Descending Minneapolis Center
11:09AM 41.3194 -96.9736 88° East 309 356 17,800 -1,680 Descending Minneapolis Center
11:09AM 41.3431 -96.9189 60° Northeast 307 353 17,000 -1,500 Descending Minneapolis Center
11:10AM 41.3364 -96.8664 100° East 299 344 16,300 -1,500 Descending Minneapolis Center
11:10AM 41.3567 -96.8106 64° Northeast 299 344 15,500 -1,620 Descending Minneapolis Center
11:11AM 41.3533 -96.7594 95° East 297 342 14,700 -1,800 Descending Minneapolis Center
11:11AM 41.3736 -96.6808 71° East 297 342 13,700 -1,380 Descending Minneapolis Center
11:12AM 41.3681 -96.6553 106° East 289 333 13,300 -1,380 Descending Minneapolis Center
11:12AM 41.3864 -96.5811 72° East 280 322 12,300 -1,620 Descending Minneapolis Center
11:13AM 41.3828 -96.5536 100° East 267 307 11,700 -1,500 Descending Minneapolis Center
11:14AM 41.3992 -96.4858 72° East 266 306 10,800 -1,380 Descending Minneapolis Center
11:14AM 41.3958 -96.4578 99° East 259 298 10,300 -1,500 Descending Minneapolis Center
11:15AM 41.4111 -96.3931 73° East 258 297 9,300 -1,500 Descending Minneapolis Center
11:15AM 41.4092 -96.3675 96° East 249 287 8,800 -1,380 Descending Minneapolis Center
11:16AM 41.4231 -96.3039 74° East 247 284 7,900 -1,440 Descending Minneapolis Center
11:16AM 41.4225 -96.2800 92° East 244 281 7,400 -1,500 Descending Minneapolis Center
11:17AM 41.4336 -96.1925 80° East 239 275 6,000 -1,380 Descending Minneapolis Center
11:18AM 41.4431 -96.1108 81° East 217 250 4,700 -1,140 Descending Minneapolis Center
11:19AM 41.4361 -96.0394 97° East 215 247 3,800 -840 Descending Minneapolis Center
11:20AM 41.3956 -95.9911 138° Southeast 175 201 3,000 -780 Descending Minneapolis Center